sensor_id;sensor_type;location;lat;lon;timestamp;temperature;humidity
15596;DHT22;7898;48.658;9.068;2024-02-28T00:01:11;5.90;99.90
15596;DHT22;7898;48.658;9.068;2024-02-28T00:03:39;6.00;99.90
15596;DHT22;7898;48.658;9.068;2024-02-28T00:06:06;6.10;99.90
15596;DHT22;7898;48.658;9.068;2024-02-28T00:08:34;6.00;99.90
15596;DHT22;7898;48.658;9.068;2024-02-28T00:11:01;6.00;99.90
15596;DHT22;7898;48.658;9.068;2024-02-28T00:13:27;6.00;99.90
15596;DHT22;7898;48.658;9.068;2024-02-28T00:15:54;6.00;99.90
15596;DHT22;7898;48.658;9.068;2024-02-28T00:18:21;5.90;99.90
15596;DHT22;7898;48.658;9.068;2024-02-28T00:20:50;5.90;99.90
15596;DHT22;7898;48.658;9.068;2024-02-28T00:23:17;5.90;99.90
15596;DHT22;7898;48.658;9.068;2024-02-28T00:25:44;6.00;99.90
15596;DHT22;7898;48.658;9.068;2024-02-28T00:28:11;6.00;99.90
15596;DHT22;7898;48.658;9.068;2024-02-28T00:30:38;6.00;99.90
15596;DHT22;7898;48.658;9.068;2024-02-28T00:33:05;6.00;99.90
15596;DHT22;7898;48.658;9.068;2024-02-28T00:35:32;6.10;99.90
15596;DHT22;7898;48.658;9.068;2024-02-28T00:38:01;6.10;99.90
15596;DHT22;7898;48.658;9.068;2024-02-28T00:40:28;6.10;99.90
15596;DHT22;7898;48.658;9.068;2024-02-28T00:42:55;6.10;99.90
15596;DHT22;7898;48.658;9.068;2024-02-28T00:45:22;6.10;99.90
15596;DHT22;7898;48.658;9.068;2024-02-28T00:47:49;6.00;99.90
15596;DHT22;7898;48.658;9.068;2024-02-28T00:50:16;6.00;99.90
15596;DHT22;7898;48.658;9.068;2024-02-28T00:52:43;6.00;99.90
15596;DHT22;7898;48.658;9.068;2024-02-28T00:55:11;5.90;99.90
15596;DHT22;7898;48.658;9.068;2024-02-28T00:57:38;5.90;99.90
15596;DHT22;7898;48.658;9.068;2024-02-28T01:00:06;5.80;99.90
15596;DHT22;7898;48.658;9.068;2024-02-28T01:02:35;5.80;99.90
15596;DHT22;7898;48.658;9.068;2024-02-28T01:05:02;5.70;99.90
15596;DHT22;7898;48.658;9.068;2024-02-28T01:07:29;5.60;99.90
15596;DHT22;7898;48.658;9.068;2024-02-28T01:09:56;5.50;99.90
15596;DHT22;7898;48.658;9.068;2024-02-28T01:12:24;5.40;99.90
15596;DHT22;7898;48.658;9.068;2024-02-28T01:14:51;5.60;99.90
15596;DHT22;7898;48.658;9.068;2024-02-28T01:17:17;5.40;99.90
15596;DHT22;7898;48.658;9.068;2024-02-28T01:19:44;5.40;99.90
15596;DHT22;7898;48.658;9.068;2024-02-28T01:22:11;5.40;99.90
15596;DHT22;7898;48.658;9.068;2024-02-28T01:24:38;5.40;99.90
15596;DHT22;7898;48.658;9.068;2024-02-28T01:27:05;5.50;99.90
15596;DHT22;7898;48.658;9.068;2024-02-28T01:29:33;5.50;99.90
15596;DHT22;7898;48.658;9.068;2024-02-28T01:32:01;5.60;99.90
15596;DHT22;7898;48.658;9.068;2024-02-28T01:34:28;5.60;99.90
15596;DHT22;7898;48.658;9.068;2024-02-28T01:36:55;5.70;99.90
15596;DHT22;7898;48.658;9.068;2024-02-28T01:39:23;5.70;99.90
15596;DHT22;7898;48.658;9.068;2024-02-28T01:41:53;5.70;99.90
15596;DHT22;7898;48.658;9.068;2024-02-28T01:44:20;5.70;99.90
15596;DHT22;7898;48.658;9.068;2024-02-28T01:46:49;5.80;99.90
15596;DHT22;7898;48.658;9.068;2024-02-28T01:49:16;5.80;99.90
15596;DHT22;7898;48.658;9.068;2024-02-28T01:51:45;5.80;99.90
15596;DHT22;7898;48.658;9.068;2024-02-28T01:54:13;5.90;99.90
15596;DHT22;7898;48.658;9.068;2024-02-28T01:56:41;5.90;99.90
15596;DHT22;7898;48.658;9.068;2024-02-28T01:59:10;5.90;99.90
15596;DHT22;7898;48.658;9.068;2024-02-28T02:01:37;5.90;99.90
15596;DHT22;7898;48.658;9.068;2024-02-28T02:04:05;5.90;99.90
15596;DHT22;7898;48.658;9.068;2024-02-28T02:06:32;5.90;99.90
15596;DHT22;7898;48.658;9.068;2024-02-28T02:09:01;6.00;99.90
15596;DHT22;7898;48.658;9.068;2024-02-28T02:11:28;6.00;99.90
15596;DHT22;7898;48.658;9.068;2024-02-28T02:13:55;6.00;99.90
15596;DHT22;7898;48.658;9.068;2024-02-28T02:16:22;6.00;99.90
15596;DHT22;7898;48.658;9.068;2024-02-28T02:18:51;6.10;99.90
15596;DHT22;7898;48.658;9.068;2024-02-28T02:21:23;6.00;99.90
15596;DHT22;7898;48.658;9.068;2024-02-28T02:23:51;6.00;99.90
15596;DHT22;7898;48.658;9.068;2024-02-28T02:26:18;6.00;99.90
15596;DHT22;7898;48.658;9.068;2024-02-28T02:28:45;6.00;99.90
15596;DHT22;7898;48.658;9.068;2024-02-28T02:31:15;6.00;99.90
15596;DHT22;7898;48.658;9.068;2024-02-28T02:33:42;6.00;99.90
15596;DHT22;7898;48.658;9.068;2024-02-28T02:36:09;6.00;99.90
15596;DHT22;7898;48.658;9.068;2024-02-28T02:38:35;6.10;99.90
15596;DHT22;7898;48.658;9.068;2024-02-28T02:41:04;6.00;99.90
15596;DHT22;7898;48.658;9.068;2024-02-28T02:43:31;6.00;99.90
15596;DHT22;7898;48.658;9.068;2024-02-28T02:45:57;6.00;99.90
15596;DHT22;7898;48.658;9.068;2024-02-28T02:48:24;6.00;99.90
15596;DHT22;7898;48.658;9.068;2024-02-28T02:50:51;6.00;99.90
15596;DHT22;7898;48.658;9.068;2024-02-28T02:53:19;6.00;99.90
15596;DHT22;7898;48.658;9.068;2024-02-28T02:55:46;6.00;99.90
15596;DHT22;7898;48.658;9.068;2024-02-28T02:58:14;6.00;99.90
15596;DHT22;7898;48.658;9.068;2024-02-28T03:00:41;6.60;99.90
15596;DHT22;7898;48.658;9.068;2024-02-28T03:03:08;6.00;99.90
15596;DHT22;7898;48.658;9.068;2024-02-28T03:05:35;6.00;99.90
15596;DHT22;7898;48.658;9.068;2024-02-28T03:08:02;6.00;99.90
15596;DHT22;7898;48.658;9.068;2024-02-28T03:10:29;5.90;99.90
15596;DHT22;7898;48.658;9.068;2024-02-28T03:12:56;5.90;99.90
15596;DHT22;7898;48.658;9.068;2024-02-28T03:15:24;5.90;99.90
15596;DHT22;7898;48.658;9.068;2024-02-28T03:17:51;5.90;99.90
15596;DHT22;7898;48.658;9.068;2024-02-28T03:20:18;5.90;99.90
15596;DHT22;7898;48.658;9.068;2024-02-28T03:22:45;5.90;99.90
15596;DHT22;7898;48.658;9.068;2024-02-28T03:25:12;5.90;99.90
15596;DHT22;7898;48.658;9.068;2024-02-28T03:27:39;5.90;99.90
15596;DHT22;7898;48.658;9.068;2024-02-28T03:30:06;6.00;99.90
15596;DHT22;7898;48.658;9.068;2024-02-28T03:32:35;5.90;99.90
15596;DHT22;7898;48.658;9.068;2024-02-28T03:35:02;5.90;99.90
15596;DHT22;7898;48.658;9.068;2024-02-28T03:37:29;5.90;99.90
15596;DHT22;7898;48.658;9.068;2024-02-28T03:39:56;5.90;99.90
15596;DHT22;7898;48.658;9.068;2024-02-28T03:42:23;5.90;99.90
15596;DHT22;7898;48.658;9.068;2024-02-28T03:44:50;5.90;99.90
15596;DHT22;7898;48.658;9.068;2024-02-28T03:47:17;6.00;99.90
15596;DHT22;7898;48.658;9.068;2024-02-28T03:49:45;5.90;99.90
15596;DHT22;7898;48.658;9.068;2024-02-28T03:52:12;5.90;99.90
15596;DHT22;7898;48.658;9.068;2024-02-28T03:54:42;5.90;99.90
15596;DHT22;7898;48.658;9.068;2024-02-28T03:57:09;6.00;99.90
15596;DHT22;7898;48.658;9.068;2024-02-28T03:59:35;5.90;99.90
15596;DHT22;7898;48.658;9.068;2024-02-28T04:02:02;5.90;99.90
15596;DHT22;7898;48.658;9.068;2024-02-28T04:04:29;5.90;99.90
15596;DHT22;7898;48.658;9.068;2024-02-28T04:06:57;5.90;99.90
15596;DHT22;7898;48.658;9.068;2024-02-28T04:09:24;5.90;99.90
15596;DHT22;7898;48.658;9.068;2024-02-28T04:11:51;5.90;99.90
15596;DHT22;7898;48.658;9.068;2024-02-28T04:14:18;5.90;99.90
15596;DHT22;7898;48.658;9.068;2024-02-28T04:16:48;6.00;99.90
15596;DHT22;7898;48.658;9.068;2024-02-28T04:19:15;6.00;99.90
15596;DHT22;7898;48.658;9.068;2024-02-28T04:21:42;6.00;99.90
15596;DHT22;7898;48.658;9.068;2024-02-28T04:24:11;5.90;99.90
15596;DHT22;7898;48.658;9.068;2024-02-28T04:26:38;6.00;99.90
15596;DHT22;7898;48.658;9.068;2024-02-28T04:29:05;6.00;99.90
15596;DHT22;7898;48.658;9.068;2024-02-28T04:31:38;5.90;99.90
15596;DHT22;7898;48.658;9.068;2024-02-28T04:34:05;5.90;99.90
15596;DHT22;7898;48.658;9.068;2024-02-28T04:36:32;5.90;99.90
15596;DHT22;7898;48.658;9.068;2024-02-28T04:38:59;5.90;99.90
15596;DHT22;7898;48.658;9.068;2024-02-28T04:41:27;5.90;99.90
15596;DHT22;7898;48.658;9.068;2024-02-28T04:43:54;5.90;99.90
15596;DHT22;7898;48.658;9.068;2024-02-28T04:46:21;5.80;99.90
15596;DHT22;7898;48.658;9.068;2024-02-28T04:48:48;5.80;99.90
15596;DHT22;7898;48.658;9.068;2024-02-28T04:51:15;5.80;99.90
15596;DHT22;7898;48.658;9.068;2024-02-28T04:53:43;5.80;99.90
15596;DHT22;7898;48.658;9.068;2024-02-28T04:56:10;5.80;99.90
15596;DHT22;7898;48.658;9.068;2024-02-28T04:58:38;5.80;99.90
15596;DHT22;7898;48.658;9.068;2024-02-28T05:01:05;5.80;99.90
15596;DHT22;7898;48.658;9.068;2024-02-28T05:03:31;5.70;99.90
15596;DHT22;7898;48.658;9.068;2024-02-28T05:05:58;5.70;99.90
15596;DHT22;7898;48.658;9.068;2024-02-28T05:08:25;5.70;99.90
15596;DHT22;7898;48.658;9.068;2024-02-28T05:10:54;5.70;99.90
15596;DHT22;7898;48.658;9.068;2024-02-28T05:13:21;5.70;99.90
15596;DHT22;7898;48.658;9.068;2024-02-28T05:15:51;5.70;99.90
15596;DHT22;7898;48.658;9.068;2024-02-28T05:18:18;5.70;99.90
15596;DHT22;7898;48.658;9.068;2024-02-28T05:20:44;5.60;99.90
15596;DHT22;7898;48.658;9.068;2024-02-28T05:23:10;5.70;99.90
15596;DHT22;7898;48.658;9.068;2024-02-28T05:25:38;5.60;99.90
15596;DHT22;7898;48.658;9.068;2024-02-28T05:28:05;5.60;99.90
15596;DHT22;7898;48.658;9.068;2024-02-28T05:30:32;5.60;99.90
15596;DHT22;7898;48.658;9.068;2024-02-28T05:33:00;5.60;99.90
15596;DHT22;7898;48.658;9.068;2024-02-28T05:35:27;5.60;99.90
15596;DHT22;7898;48.658;9.068;2024-02-28T05:37:54;5.70;99.90
15596;DHT22;7898;48.658;9.068;2024-02-28T05:40:21;5.60;99.90
15596;DHT22;7898;48.658;9.068;2024-02-28T05:42:48;5.60;99.90
15596;DHT22;7898;48.658;9.068;2024-02-28T05:45:15;5.60;99.90
15596;DHT22;7898;48.658;9.068;2024-02-28T05:47:41;5.70;99.90
15596;DHT22;7898;48.658;9.068;2024-02-28T05:50:10;5.80;99.90
15596;DHT22;7898;48.658;9.068;2024-02-28T05:52:41;5.80;99.90
15596;DHT22;7898;48.658;9.068;2024-02-28T05:55:08;5.70;99.90
15596;DHT22;7898;48.658;9.068;2024-02-28T05:57:35;5.70;99.90
15596;DHT22;7898;48.658;9.068;2024-02-28T06:00:02;5.70;99.90
15596;DHT22;7898;48.658;9.068;2024-02-28T06:02:35;5.70;99.90
15596;DHT22;7898;48.658;9.068;2024-02-28T06:05:02;5.70;99.90
15596;DHT22;7898;48.658;9.068;2024-02-28T06:07:30;5.70;99.90
15596;DHT22;7898;48.658;9.068;2024-02-28T06:09:57;5.70;99.90
15596;DHT22;7898;48.658;9.068;2024-02-28T06:12:25;5.70;99.90
15596;DHT22;7898;48.658;9.068;2024-02-28T06:14:52;5.70;99.90
15596;DHT22;7898;48.658;9.068;2024-02-28T06:17:22;5.60;99.90
15596;DHT22;7898;48.658;9.068;2024-02-28T06:19:49;5.60;99.90
15596;DHT22;7898;48.658;9.068;2024-02-28T06:22:16;5.60;99.90
15596;DHT22;7898;48.658;9.068;2024-02-28T06:24:46;5.60;99.90
15596;DHT22;7898;48.658;9.068;2024-02-28T06:27:13;5.60;99.90
15596;DHT22;7898;48.658;9.068;2024-02-28T06:29:40;5.60;99.90
15596;DHT22;7898;48.658;9.068;2024-02-28T06:32:07;5.60;99.90
15596;DHT22;7898;48.658;9.068;2024-02-28T06:34:34;5.50;99.90
15596;DHT22;7898;48.658;9.068;2024-02-28T06:37:01;5.50;99.90
15596;DHT22;7898;48.658;9.068;2024-02-28T06:39:29;5.60;99.90
15596;DHT22;7898;48.658;9.068;2024-02-28T06:41:57;5.70;99.90
15596;DHT22;7898;48.658;9.068;2024-02-28T06:44:24;5.60;99.90
15596;DHT22;7898;48.658;9.068;2024-02-28T06:46:51;5.60;99.90
15596;DHT22;7898;48.658;9.068;2024-02-28T06:49:18;5.60;99.90
15596;DHT22;7898;48.658;9.068;2024-02-28T06:51:45;5.60;99.90
15596;DHT22;7898;48.658;9.068;2024-02-28T06:54:12;5.60;99.90
15596;DHT22;7898;48.658;9.068;2024-02-28T06:56:38;5.60;99.90
15596;DHT22;7898;48.658;9.068;2024-02-28T06:59:07;5.60;99.90
15596;DHT22;7898;48.658;9.068;2024-02-28T07:01:33;5.60;99.90
15596;DHT22;7898;48.658;9.068;2024-02-28T07:04:00;5.60;99.90
15596;DHT22;7898;48.658;9.068;2024-02-28T07:06:27;5.60;99.90
15596;DHT22;7898;48.658;9.068;2024-02-28T07:08:54;5.70;99.90
15596;DHT22;7898;48.658;9.068;2024-02-28T07:11:21;5.70;99.90
15596;DHT22;7898;48.658;9.068;2024-02-28T07:13:48;5.70;99.90
15596;DHT22;7898;48.658;9.068;2024-02-28T07:16:16;5.70;99.90
15596;DHT22;7898;48.658;9.068;2024-02-28T07:18:43;5.90;99.90
15596;DHT22;7898;48.658;9.068;2024-02-28T07:21:10;6.00;99.90
15596;DHT22;7898;48.658;9.068;2024-02-28T07:23:39;6.00;99.90
15596;DHT22;7898;48.658;9.068;2024-02-28T07:26:06;5.90;99.90
15596;DHT22;7898;48.658;9.068;2024-02-28T07:28:33;5.90;99.90
15596;DHT22;7898;48.658;9.068;2024-02-28T07:31:03;5.90;99.90
15596;DHT22;7898;48.658;9.068;2024-02-28T07:33:31;5.90;99.90
15596;DHT22;7898;48.658;9.068;2024-02-28T07:35:58;5.90;99.90
15596;DHT22;7898;48.658;9.068;2024-02-28T07:38:26;5.90;99.90
15596;DHT22;7898;48.658;9.068;2024-02-28T07:40:54;5.90;99.90
15596;DHT22;7898;48.658;9.068;2024-02-28T07:43:21;6.00;99.90
15596;DHT22;7898;48.658;9.068;2024-02-28T07:45:47;6.00;99.90
15596;DHT22;7898;48.658;9.068;2024-02-28T07:48:13;6.00;99.90
15596;DHT22;7898;48.658;9.068;2024-02-28T07:50:44;6.00;99.90
15596;DHT22;7898;48.658;9.068;2024-02-28T07:53:11;6.00;99.90
15596;DHT22;7898;48.658;9.068;2024-02-28T07:55:38;6.00;99.90
15596;DHT22;7898;48.658;9.068;2024-02-28T07:58:05;6.00;99.90
15596;DHT22;7898;48.658;9.068;2024-02-28T08:00:32;6.00;99.90
15596;DHT22;7898;48.658;9.068;2024-02-28T08:02:59;6.00;99.90
15596;DHT22;7898;48.658;9.068;2024-02-28T08:05:26;6.10;99.90
15596;DHT22;7898;48.658;9.068;2024-02-28T08:07:55;6.10;99.90
15596;DHT22;7898;48.658;9.068;2024-02-28T08:10:21;6.10;99.90
15596;DHT22;7898;48.658;9.068;2024-02-28T08:12:49;6.20;99.90
15596;DHT22;7898;48.658;9.068;2024-02-28T08:15:16;6.20;99.90
15596;DHT22;7898;48.658;9.068;2024-02-28T08:17:43;6.20;99.90
15596;DHT22;7898;48.658;9.068;2024-02-28T08:20:10;6.20;99.90
15596;DHT22;7898;48.658;9.068;2024-02-28T08:22:37;6.20;99.90
15596;DHT22;7898;48.658;9.068;2024-02-28T08:25:06;6.10;99.90
15596;DHT22;7898;48.658;9.068;2024-02-28T08:27:36;6.10;99.90
15596;DHT22;7898;48.658;9.068;2024-02-28T08:30:05;6.10;99.90
15596;DHT22;7898;48.658;9.068;2024-02-28T08:32:32;6.10;99.90
15596;DHT22;7898;48.658;9.068;2024-02-28T08:34:59;6.10;99.90
15596;DHT22;7898;48.658;9.068;2024-02-28T08:37:26;6.10;99.90
15596;DHT22;7898;48.658;9.068;2024-02-28T08:39:54;6.10;99.90
15596;DHT22;7898;48.658;9.068;2024-02-28T08:42:24;6.10;99.90
15596;DHT22;7898;48.658;9.068;2024-02-28T08:44:51;6.10;99.90
15596;DHT22;7898;48.658;9.068;2024-02-28T08:47:22;6.10;99.90
15596;DHT22;7898;48.658;9.068;2024-02-28T08:49:50;6.10;99.90
15596;DHT22;7898;48.658;9.068;2024-02-28T08:52:17;6.10;99.90
15596;DHT22;7898;48.658;9.068;2024-02-28T08:54:44;6.20;99.90
15596;DHT22;7898;48.658;9.068;2024-02-28T08:57:11;6.20;99.90
15596;DHT22;7898;48.658;9.068;2024-02-28T08:59:39;6.20;99.90
15596;DHT22;7898;48.658;9.068;2024-02-28T09:02:06;6.30;99.90
15596;DHT22;7898;48.658;9.068;2024-02-28T09:04:34;6.30;99.90
15596;DHT22;7898;48.658;9.068;2024-02-28T09:07:00;6.30;99.90
15596;DHT22;7898;48.658;9.068;2024-02-28T09:09:28;6.30;99.90
15596;DHT22;7898;48.658;9.068;2024-02-28T09:11:57;6.40;99.90
15596;DHT22;7898;48.658;9.068;2024-02-28T09:14:24;6.40;99.90
15596;DHT22;7898;48.658;9.068;2024-02-28T09:16:52;6.40;99.90
15596;DHT22;7898;48.658;9.068;2024-02-28T09:19:21;6.40;99.90
15596;DHT22;7898;48.658;9.068;2024-02-28T09:21:48;6.50;99.90
15596;DHT22;7898;48.658;9.068;2024-02-28T09:24:15;6.50;99.90
15596;DHT22;7898;48.658;9.068;2024-02-28T09:26:42;6.60;99.90
15596;DHT22;7898;48.658;9.068;2024-02-28T09:29:09;6.60;99.90
15596;DHT22;7898;48.658;9.068;2024-02-28T09:31:36;6.70;99.90
15596;DHT22;7898;48.658;9.068;2024-02-28T09:34:04;6.70;99.90
15596;DHT22;7898;48.658;9.068;2024-02-28T09:36:40;6.70;99.90
15596;DHT22;7898;48.658;9.068;2024-02-28T09:39:07;6.70;99.90
15596;DHT22;7898;48.658;9.068;2024-02-28T09:41:34;6.70;99.90
15596;DHT22;7898;48.658;9.068;2024-02-28T09:44:02;6.80;99.90
15596;DHT22;7898;48.658;9.068;2024-02-28T09:46:29;6.80;99.90
15596;DHT22;7898;48.658;9.068;2024-02-28T09:48:57;6.90;99.90
15596;DHT22;7898;48.658;9.068;2024-02-28T09:51:26;7.00;99.90
15596;DHT22;7898;48.658;9.068;2024-02-28T09:53:53;7.10;99.90
15596;DHT22;7898;48.658;9.068;2024-02-28T09:56:21;7.10;99.90
15596;DHT22;7898;48.658;9.068;2024-02-28T09:58:49;7.10;99.90
15596;DHT22;7898;48.658;9.068;2024-02-28T10:01:18;7.20;99.90
15596;DHT22;7898;48.658;9.068;2024-02-28T10:03:47;7.20;99.90
15596;DHT22;7898;48.658;9.068;2024-02-28T10:06:15;7.20;99.90
15596;DHT22;7898;48.658;9.068;2024-02-28T10:08:43;7.30;99.90
15596;DHT22;7898;48.658;9.068;2024-02-28T10:11:17;7.20;99.90
15596;DHT22;7898;48.658;9.068;2024-02-28T10:13:44;7.20;99.90
15596;DHT22;7898;48.658;9.068;2024-02-28T10:16:11;7.20;99.90
15596;DHT22;7898;48.658;9.068;2024-02-28T10:18:38;7.30;99.90
15596;DHT22;7898;48.658;9.068;2024-02-28T10:21:05;7.30;99.90
15596;DHT22;7898;48.658;9.068;2024-02-28T10:23:31;7.30;99.90
15596;DHT22;7898;48.658;9.068;2024-02-28T10:26:01;7.20;99.90
15596;DHT22;7898;48.658;9.068;2024-02-28T10:28:28;7.20;99.90
15596;DHT22;7898;48.658;9.068;2024-02-28T10:30:55;7.10;99.90
15596;DHT22;7898;48.658;9.068;2024-02-28T10:33:22;7.10;99.90
15596;DHT22;7898;48.658;9.068;2024-02-28T10:35:54;7.20;99.90
15596;DHT22;7898;48.658;9.068;2024-02-28T10:38:21;7.20;99.90
15596;DHT22;7898;48.658;9.068;2024-02-28T10:40:49;7.20;99.90
15596;DHT22;7898;48.658;9.068;2024-02-28T10:43:19;7.30;99.90
15596;DHT22;7898;48.658;9.068;2024-02-28T10:45:46;7.50;99.90
15596;DHT22;7898;48.658;9.068;2024-02-28T10:48:14;7.50;99.90
15596;DHT22;7898;48.658;9.068;2024-02-28T10:50:43;7.50;99.90
15596;DHT22;7898;48.658;9.068;2024-02-28T10:53:13;7.50;99.90
15596;DHT22;7898;48.658;9.068;2024-02-28T10:55:41;7.50;99.90
15596;DHT22;7898;48.658;9.068;2024-02-28T10:58:10;7.50;99.90
15596;DHT22;7898;48.658;9.068;2024-02-28T11:00:39;7.60;99.90
15596;DHT22;7898;48.658;9.068;2024-02-28T11:03:08;7.60;99.90
15596;DHT22;7898;48.658;9.068;2024-02-28T11:05:37;7.60;99.90
15596;DHT22;7898;48.658;9.068;2024-02-28T11:08:07;7.70;99.90
15596;DHT22;7898;48.658;9.068;2024-02-28T11:10:34;7.80;99.90
15596;DHT22;7898;48.658;9.068;2024-02-28T11:13:01;7.90;99.90
15596;DHT22;7898;48.658;9.068;2024-02-28T11:15:28;8.00;99.90
15596;DHT22;7898;48.658;9.068;2024-02-28T11:18:07;7.90;99.90
15596;DHT22;7898;48.658;9.068;2024-02-28T11:20:34;8.00;99.90
15596;DHT22;7898;48.658;9.068;2024-02-28T11:23:01;8.00;99.90
15596;DHT22;7898;48.658;9.068;2024-02-28T11:25:28;8.00;99.90
15596;DHT22;7898;48.658;9.068;2024-02-28T11:27:55;7.90;99.90
15596;DHT22;7898;48.658;9.068;2024-02-28T11:30:22;7.90;99.90
15596;DHT22;7898;48.658;9.068;2024-02-28T11:32:52;7.80;99.90
15596;DHT22;7898;48.658;9.068;2024-02-28T11:35:21;7.70;99.90
15596;DHT22;7898;48.658;9.068;2024-02-28T11:37:48;7.70;99.90
15596;DHT22;7898;48.658;9.068;2024-02-28T11:40:16;7.70;99.90
15596;DHT22;7898;48.658;9.068;2024-02-28T11:42:42;7.80;99.90
15596;DHT22;7898;48.658;9.068;2024-02-28T11:45:10;7.80;99.90
15596;DHT22;7898;48.658;9.068;2024-02-28T11:47:37;7.70;99.90
15596;DHT22;7898;48.658;9.068;2024-02-28T11:50:05;7.60;99.90
15596;DHT22;7898;48.658;9.068;2024-02-28T11:52:34;7.70;99.90
15596;DHT22;7898;48.658;9.068;2024-02-28T11:55:01;7.70;99.90
15596;DHT22;7898;48.658;9.068;2024-02-28T11:57:28;7.70;99.90
15596;DHT22;7898;48.658;9.068;2024-02-28T12:00:02;7.70;99.90
15596;DHT22;7898;48.658;9.068;2024-02-28T12:02:31;7.70;99.90
15596;DHT22;7898;48.658;9.068;2024-02-28T12:05:01;7.70;99.90
15596;DHT22;7898;48.658;9.068;2024-02-28T12:07:29;7.70;99.90
15596;DHT22;7898;48.658;9.068;2024-02-28T12:09:58;7.80;99.90
15596;DHT22;7898;48.658;9.068;2024-02-28T12:12:24;7.80;99.90
15596;DHT22;7898;48.658;9.068;2024-02-28T12:14:51;7.70;99.90
15596;DHT22;7898;48.658;9.068;2024-02-28T12:17:18;7.70;99.90
15596;DHT22;7898;48.658;9.068;2024-02-28T12:19:45;7.60;99.90
15596;DHT22;7898;48.658;9.068;2024-02-28T12:22:12;7.60;99.90
15596;DHT22;7898;48.658;9.068;2024-02-28T12:24:39;7.60;99.90
15596;DHT22;7898;48.658;9.068;2024-02-28T12:27:08;7.70;99.90
15596;DHT22;7898;48.658;9.068;2024-02-28T12:29:35;7.70;99.90
15596;DHT22;7898;48.658;9.068;2024-02-28T12:32:02;7.80;99.90
15596;DHT22;7898;48.658;9.068;2024-02-28T12:34:29;7.90;99.90
15596;DHT22;7898;48.658;9.068;2024-02-28T12:36:56;7.80;99.90
15596;DHT22;7898;48.658;9.068;2024-02-28T12:39:26;7.80;99.90
15596;DHT22;7898;48.658;9.068;2024-02-28T12:41:53;7.70;99.90
15596;DHT22;7898;48.658;9.068;2024-02-28T12:44:21;7.70;99.90
15596;DHT22;7898;48.658;9.068;2024-02-28T12:46:48;7.70;99.90
15596;DHT22;7898;48.658;9.068;2024-02-28T12:49:15;7.70;99.90
15596;DHT22;7898;48.658;9.068;2024-02-28T12:51:43;7.70;99.90
15596;DHT22;7898;48.658;9.068;2024-02-28T12:54:11;7.80;99.90
15596;DHT22;7898;48.658;9.068;2024-02-28T12:56:40;7.80;99.90
15596;DHT22;7898;48.658;9.068;2024-02-28T12:59:09;7.80;99.90
15596;DHT22;7898;48.658;9.068;2024-02-28T13:01:37;7.80;99.90
15596;DHT22;7898;48.658;9.068;2024-02-28T13:04:04;7.90;99.90
15596;DHT22;7898;48.658;9.068;2024-02-28T13:06:31;7.90;99.90
15596;DHT22;7898;48.658;9.068;2024-02-28T13:08:58;7.90;99.90
15596;DHT22;7898;48.658;9.068;2024-02-28T13:11:25;7.80;99.90
15596;DHT22;7898;48.658;9.068;2024-02-28T13:13:52;7.80;99.90
15596;DHT22;7898;48.658;9.068;2024-02-28T13:16:20;7.80;99.90
15596;DHT22;7898;48.658;9.068;2024-02-28T13:18:48;7.70;99.90
15596;DHT22;7898;48.658;9.068;2024-02-28T13:21:15;7.70;99.90
15596;DHT22;7898;48.658;9.068;2024-02-28T13:23:42;7.70;99.90
15596;DHT22;7898;48.658;9.068;2024-02-28T13:26:09;7.70;99.90
15596;DHT22;7898;48.658;9.068;2024-02-28T13:28:43;7.70;99.90
15596;DHT22;7898;48.658;9.068;2024-02-28T13:31:10;7.70;99.90
15596;DHT22;7898;48.658;9.068;2024-02-28T13:33:37;7.90;99.90
15596;DHT22;7898;48.658;9.068;2024-02-28T13:36:06;7.90;99.90
15596;DHT22;7898;48.658;9.068;2024-02-28T13:38:33;7.90;99.90
15596;DHT22;7898;48.658;9.068;2024-02-28T13:41:00;7.90;99.90
15596;DHT22;7898;48.658;9.068;2024-02-28T13:43:27;7.90;99.90
15596;DHT22;7898;48.658;9.068;2024-02-28T13:45:54;7.80;99.90
15596;DHT22;7898;48.658;9.068;2024-02-28T13:48:26;7.80;99.90
15596;DHT22;7898;48.658;9.068;2024-02-28T13:50:54;7.70;99.90
15596;DHT22;7898;48.658;9.068;2024-02-28T13:53:23;7.60;99.90
15596;DHT22;7898;48.658;9.068;2024-02-28T13:55:50;7.60;99.90
15596;DHT22;7898;48.658;9.068;2024-02-28T13:58:17;7.60;99.90
15596;DHT22;7898;48.658;9.068;2024-02-28T14:00:44;7.50;99.90
15596;DHT22;7898;48.658;9.068;2024-02-28T14:03:12;7.50;99.90
15596;DHT22;7898;48.658;9.068;2024-02-28T14:05:39;7.50;99.90
15596;DHT22;7898;48.658;9.068;2024-02-28T14:08:07;7.50;99.90
15596;DHT22;7898;48.658;9.068;2024-02-28T14:10:35;7.50;99.90
15596;DHT22;7898;48.658;9.068;2024-02-28T14:13:02;7.50;99.90
15596;DHT22;7898;48.658;9.068;2024-02-28T14:15:29;7.60;99.90
15596;DHT22;7898;48.658;9.068;2024-02-28T14:17:56;7.70;99.90
15596;DHT22;7898;48.658;9.068;2024-02-28T14:20:23;7.60;99.90
15596;DHT22;7898;48.658;9.068;2024-02-28T14:22:51;7.60;99.90
15596;DHT22;7898;48.658;9.068;2024-02-28T14:25:18;7.50;99.90
15596;DHT22;7898;48.658;9.068;2024-02-28T14:27:48;7.50;99.90
15596;DHT22;7898;48.658;9.068;2024-02-28T14:30:15;7.50;99.90
15596;DHT22;7898;48.658;9.068;2024-02-28T14:32:43;7.50;99.90
15596;DHT22;7898;48.658;9.068;2024-02-28T14:35:10;7.50;99.90
15596;DHT22;7898;48.658;9.068;2024-02-28T14:37:38;7.30;99.90
15596;DHT22;7898;48.658;9.068;2024-02-28T14:40:07;7.30;99.90
15596;DHT22;7898;48.658;9.068;2024-02-28T14:42:36;7.30;99.90
15596;DHT22;7898;48.658;9.068;2024-02-28T14:45:06;7.30;99.90
15596;DHT22;7898;48.658;9.068;2024-02-28T14:47:34;7.20;99.90
15596;DHT22;7898;48.658;9.068;2024-02-28T14:50:02;7.20;99.90
15596;DHT22;7898;48.658;9.068;2024-02-28T14:52:29;7.20;99.90
15596;DHT22;7898;48.658;9.068;2024-02-28T14:54:56;7.30;99.90
15596;DHT22;7898;48.658;9.068;2024-02-28T14:57:23;7.30;99.90
15596;DHT22;7898;48.658;9.068;2024-02-28T14:59:50;7.30;99.90
15596;DHT22;7898;48.658;9.068;2024-02-28T15:02:18;7.40;99.90
15596;DHT22;7898;48.658;9.068;2024-02-28T15:04:45;7.30;99.90
15596;DHT22;7898;48.658;9.068;2024-02-28T15:07:13;7.30;99.90
15596;DHT22;7898;48.658;9.068;2024-02-28T15:09:40;7.30;99.90
15596;DHT22;7898;48.658;9.068;2024-02-28T15:12:07;7.20;99.90
15596;DHT22;7898;48.658;9.068;2024-02-28T15:14:35;7.30;99.90
15596;DHT22;7898;48.658;9.068;2024-02-28T15:17:02;7.30;99.90
15596;DHT22;7898;48.658;9.068;2024-02-28T15:19:30;7.30;99.90
15596;DHT22;7898;48.658;9.068;2024-02-28T15:21:58;7.10;99.90
15596;DHT22;7898;48.658;9.068;2024-02-28T15:24:25;7.10;99.90
15596;DHT22;7898;48.658;9.068;2024-02-28T15:26:53;7.00;99.90
15596;DHT22;7898;48.658;9.068;2024-02-28T15:29:20;7.10;99.90
15596;DHT22;7898;48.658;9.068;2024-02-28T15:31:49;7.00;99.90
15596;DHT22;7898;48.658;9.068;2024-02-28T15:34:15;7.10;99.90
15596;DHT22;7898;48.658;9.068;2024-02-28T15:36:44;7.10;99.90
15596;DHT22;7898;48.658;9.068;2024-02-28T15:39:11;7.10;99.90
15596;DHT22;7898;48.658;9.068;2024-02-28T15:41:38;7.00;99.90
15596;DHT22;7898;48.658;9.068;2024-02-28T15:44:05;7.20;99.90
15596;DHT22;7898;48.658;9.068;2024-02-28T15:46:32;7.20;99.90
15596;DHT22;7898;48.658;9.068;2024-02-28T15:48:59;7.20;99.90
15596;DHT22;7898;48.658;9.068;2024-02-28T15:51:26;7.20;99.90
15596;DHT22;7898;48.658;9.068;2024-02-28T15:53:55;7.10;99.90
15596;DHT22;7898;48.658;9.068;2024-02-28T15:56:23;7.00;99.90
15596;DHT22;7898;48.658;9.068;2024-02-28T15:58:50;7.00;99.90
15596;DHT22;7898;48.658;9.068;2024-02-28T16:01:17;6.90;99.90
15596;DHT22;7898;48.658;9.068;2024-02-28T16:03:44;6.90;99.90